createdAt,value
2017-08-31T00:00:12.269Z,90.60
2017-08-31T00:02:43.007Z,90.20
2017-08-31T00:05:13.504Z,90.20
2017-08-31T00:07:44.336Z,89.90
2017-08-31T00:10:14.866Z,89.30
2017-08-31T00:12:45.759Z,89.90
2017-08-31T00:15:16.360Z,90.50
2017-08-31T00:17:47.442Z,90.40
2017-08-31T00:20:18.307Z,90.50
2017-08-31T00:22:50.500Z,90.10
2017-08-31T00:25:21.176Z,90.30
2017-08-31T00:27:52.469Z,90.70
2017-08-31T00:30:23.167Z,90.60
2017-08-31T00:32:54.287Z,90.50
2017-08-31T00:35:24.993Z,90.90
2017-08-31T00:37:55.674Z,90.80
2017-08-31T00:40:26.706Z,90.70
2017-08-31T00:42:57.226Z,90.80
2017-08-31T00:45:28.036Z,91.00
2017-08-31T00:47:59.164Z,91.10
2017-08-31T00:50:29.897Z,91.10
2017-08-31T00:53:00.848Z,91.10
2017-08-31T00:55:31.370Z,91.00
2017-08-31T00:58:02.058Z,91.40
2017-08-31T01:00:32.584Z,91.30
2017-08-31T01:03:04.611Z,91.00
2017-08-31T01:05:34.915Z,90.90
2017-08-31T01:08:05.638Z,91.10
2017-08-31T01:10:36.371Z,90.70
2017-08-31T01:13:07.354Z,90.70
2017-08-31T01:15:37.758Z,90.80
2017-08-31T01:18:08.333Z,91.10
2017-08-31T01:20:38.856Z,91.00
2017-08-31T01:23:09.809Z,90.90
2017-08-31T01:25:41.860Z,90.60
2017-08-31T01:39:33.882Z,91.00
2017-08-31T01:42:04.590Z,90.90
2017-08-31T01:44:35.350Z,90.70
2017-08-31T01:47:07.071Z,90.50
2017-08-31T01:49:38.085Z,90.50
2017-08-31T01:52:08.740Z,90.30
2017-08-31T01:54:39.704Z,90.60
2017-08-31T01:57:10.131Z,90.90
2017-08-31T01:59:41.253Z,90.60
2017-08-31T02:02:11.846Z,90.60
2017-08-31T02:04:43.478Z,90.80
2017-08-31T02:07:14.142Z,90.80
2017-08-31T02:09:45.238Z,90.50
2017-08-31T02:12:16.605Z,90.40
2017-08-31T02:14:47.601Z,90.40
2017-08-31T02:17:18.326Z,90.50
2017-08-31T02:19:49.275Z,90.40
2017-08-31T02:22:20.118Z,89.80
2017-08-31T02:24:50.727Z,89.10
2017-08-31T02:27:21.723Z,89.40
2017-08-31T02:29:52.646Z,90.00
2017-08-31T02:32:23.297Z,90.10
2017-08-31T02:34:54.059Z,90.00
2017-08-31T02:37:24.638Z,89.90
2017-08-31T02:39:55.340Z,90.20
2017-08-31T02:42:26.175Z,90.20
2017-08-31T02:44:57.058Z,90.00
2017-08-31T02:47:27.733Z,89.30
2017-08-31T02:49:58.861Z,88.80
2017-08-31T02:52:29.437Z,88.50
2017-08-31T02:54:59.876Z,88.60
2017-08-31T02:57:30.449Z,88.80
2017-08-31T03:00:01.192Z,88.30
2017-08-31T03:02:31.927Z,88.90
2017-08-31T03:05:02.646Z,89.50
2017-08-31T03:07:33.751Z,89.30
2017-08-31T03:10:04.680Z,89.20
2017-08-31T03:12:35.219Z,89.70
2017-08-31T03:15:05.643Z,89.10
2017-08-31T03:17:36.278Z,89.70
2017-08-31T03:20:06.654Z,90.10
2017-08-31T03:22:36.820Z,89.30
2017-08-31T03:25:07.798Z,89.30
2017-08-31T03:27:38.322Z,87.80
2017-08-31T03:30:09.277Z,88.00
2017-08-31T03:32:41.942Z,88.50
2017-08-31T03:35:12.541Z,89.30
2017-08-31T03:37:42.975Z,88.20
2017-08-31T03:40:13.333Z,88.10
2017-08-31T03:42:43.921Z,87.70
2017-08-31T03:45:14.698Z,88.30
2017-08-31T03:47:45.478Z,88.70
2017-08-31T03:50:16.381Z,88.70
2017-08-31T03:52:46.982Z,88.50
2017-08-31T03:55:17.945Z,88.20
2017-08-31T03:57:48.505Z,88.20
2017-08-31T04:00:19.841Z,87.90
2017-08-31T04:02:50.930Z,88.00
2017-08-31T04:05:21.642Z,87.60
2017-08-31T04:07:52.510Z,88.30
2017-08-31T04:10:23.292Z,88.40
2017-08-31T04:12:53.534Z,88.90
2017-08-31T04:15:24.452Z,88.60
2017-08-31T04:17:55.330Z,87.90
2017-08-31T04:20:26.386Z,87.60
2017-08-31T04:22:59.252Z,87.70
2017-08-31T04:25:35.650Z,88.20
2017-08-31T04:28:06.755Z,88.50
2017-08-31T04:30:37.726Z,88.00
2017-08-31T04:33:08.186Z,88.10
2017-08-31T04:35:38.956Z,87.40
2017-08-31T04:38:09.559Z,87.40
2017-08-31T04:40:40.397Z,87.50
2017-08-31T04:43:10.923Z,87.50
2017-08-31T04:45:41.368Z,87.30
2017-08-31T04:48:11.840Z,87.80
2017-08-31T04:50:42.370Z,87.50
2017-08-31T04:53:12.931Z,87.30
2017-08-31T04:55:43.257Z,88.00
2017-08-31T04:58:13.651Z,87.80
2017-08-31T05:00:44.421Z,88.00
2017-08-31T05:03:15.402Z,88.60
2017-08-31T05:05:45.957Z,88.30
2017-08-31T05:08:16.482Z,87.80
2017-08-31T05:10:46.893Z,87.50
2017-08-31T05:13:17.493Z,87.10
2017-08-31T05:15:47.932Z,87.30
2017-08-31T05:18:18.586Z,87.80
2017-08-31T05:20:49.205Z,87.60
2017-08-31T05:23:20.450Z,88.60
2017-08-31T05:25:51.061Z,88.60
2017-08-31T05:28:22.116Z,88.30
2017-08-31T05:30:52.601Z,88.30
2017-08-31T05:33:24.046Z,87.40
2017-08-31T05:35:54.483Z,87.40
2017-08-31T05:38:24.920Z,87.30
2017-08-31T05:40:55.491Z,87.90
2017-08-31T05:43:26.062Z,87.10
2017-08-31T05:45:56.897Z,87.20
2017-08-31T05:48:27.486Z,86.60
2017-08-31T05:50:57.953Z,86.50
2017-08-31T05:53:28.489Z,86.70
2017-08-31T05:55:59.106Z,87.60
2017-08-31T05:58:29.503Z,88.00
2017-08-31T06:01:00.078Z,88.10
2017-08-31T06:03:30.621Z,88.00
2017-08-31T06:06:01.467Z,87.70
2017-08-31T06:08:32.010Z,87.30
2017-08-31T06:11:02.473Z,87.50
2017-08-31T06:13:32.864Z,87.00
2017-08-31T06:16:03.325Z,86.90
2017-08-31T06:18:33.833Z,87.80
2017-08-31T06:21:04.453Z,88.30
2017-08-31T06:23:34.814Z,88.20
2017-08-31T06:26:05.450Z,88.70
2017-08-31T06:28:36.185Z,88.10
2017-08-31T06:31:06.605Z,88.40
2017-08-31T06:33:36.923Z,88.40
2017-08-31T06:36:07.325Z,89.50
2017-08-31T06:38:37.933Z,89.20
2017-08-31T06:41:08.673Z,89.70
2017-08-31T06:43:39.054Z,90.10
2017-08-31T06:46:09.490Z,89.90
2017-08-31T06:48:40.325Z,89.90
2017-08-31T06:51:10.641Z,89.00
2017-08-31T06:53:40.930Z,89.10
2017-08-31T06:56:13.030Z,89.50
2017-08-31T06:58:43.410Z,89.40
2017-08-31T07:01:14.557Z,89.10
2017-08-31T07:03:44.974Z,89.10
2017-08-31T07:06:15.234Z,88.90
2017-08-31T07:08:45.508Z,89.30
2017-08-31T07:11:15.782Z,89.10
2017-08-31T07:13:46.190Z,89.40
2017-08-31T07:16:17.097Z,89.40
2017-08-31T07:18:47.557Z,89.60
2017-08-31T07:21:17.959Z,89.20
2017-08-31T07:23:48.283Z,89.10
2017-08-31T07:26:18.757Z,89.10
2017-08-31T07:28:49.295Z,88.20
2017-08-31T07:31:19.750Z,88.90
2017-08-31T07:33:50.497Z,88.60
2017-08-31T07:36:20.891Z,88.90
2017-08-31T07:38:51.374Z,88.60
2017-08-31T07:41:21.849Z,88.40
2017-08-31T07:43:52.625Z,89.80
2017-08-31T07:46:22.969Z,89.10
2017-08-31T07:48:53.770Z,89.70
2017-08-31T07:51:24.192Z,90.10
2017-08-31T07:53:54.678Z,89.40
2017-08-31T07:56:24.974Z,89.70
2017-08-31T07:58:56.034Z,89.80
2017-08-31T08:01:26.367Z,89.70
2017-08-31T08:03:56.880Z,89.80
2017-08-31T08:06:28.048Z,90.00
2017-08-31T08:08:59.681Z,90.00
2017-08-31T08:11:30.069Z,89.70
2017-08-31T08:14:00.407Z,89.60
2017-08-31T08:16:30.881Z,90.00
2017-08-31T08:19:01.933Z,89.60
2017-08-31T08:21:33.068Z,89.10
2017-08-31T08:24:03.341Z,89.00
2017-08-31T08:26:33.926Z,88.30
2017-08-31T08:29:04.309Z,89.50
2017-08-31T08:31:34.598Z,90.10
2017-08-31T08:34:05.001Z,90.10
2017-08-31T08:36:35.358Z,88.90
2017-08-31T08:39:06.202Z,88.70
2017-08-31T08:41:36.612Z,87.90
2017-08-31T08:44:07.099Z,88.20
2017-08-31T08:46:38.276Z,87.90
2017-08-31T08:49:09.213Z,87.90
2017-08-31T08:51:39.746Z,88.10
2017-08-31T08:54:10.039Z,88.30
2017-08-31T08:56:40.950Z,88.20
2017-08-31T08:59:11.575Z,88.10
2017-08-31T09:01:41.902Z,88.80
2017-08-31T09:04:13.407Z,88.70
2017-08-31T09:06:44.042Z,87.80
2017-08-31T09:09:14.562Z,88.00
2017-08-31T09:11:45.681Z,87.90
2017-08-31T09:14:16.147Z,87.90
2017-08-31T09:16:46.614Z,87.70
2017-08-31T09:19:17.246Z,87.10
2017-08-31T09:21:47.729Z,87.60
2017-08-31T09:24:18.485Z,86.40
2017-08-31T09:26:49.207Z,86.60
2017-08-31T09:29:19.824Z,86.60
2017-08-31T09:31:50.161Z,86.30
2017-08-31T09:34:20.593Z,86.00
2017-08-31T09:36:51.185Z,85.70
2017-08-31T09:39:21.505Z,86.30
2017-08-31T09:41:51.871Z,86.30
2017-08-31T09:44:22.385Z,86.20
2017-08-31T09:46:52.776Z,86.10
2017-08-31T09:49:23.322Z,85.10
2017-08-31T09:51:53.740Z,84.60
2017-08-31T09:54:24.093Z,83.30
2017-08-31T09:56:54.493Z,83.80
2017-08-31T09:59:25.177Z,84.30
2017-08-31T10:01:55.519Z,84.10
2017-08-31T10:04:25.928Z,83.50
2017-08-31T10:06:56.763Z,83.50
2017-08-31T10:09:27.077Z,83.00
2017-08-31T10:11:57.382Z,83.90
2017-08-31T10:14:28.144Z,83.30
2017-08-31T10:16:58.715Z,82.60
2017-08-31T10:19:31.024Z,82.20
2017-08-31T10:22:02.194Z,82.70
2017-08-31T10:24:32.961Z,82.70
2017-08-31T10:27:03.401Z,83.00
2017-08-31T10:29:33.974Z,83.50
2017-08-31T10:32:04.638Z,83.30
2017-08-31T10:34:35.665Z,81.30
2017-08-31T10:37:06.363Z,81.30
2017-08-31T10:39:37.671Z,81.50
2017-08-31T10:42:08.011Z,81.50
2017-08-31T10:44:39.296Z,79.80
2017-08-31T10:47:09.859Z,79.80
2017-08-31T10:49:40.425Z,79.70
2017-08-31T10:52:11.102Z,80.30
2017-08-31T10:54:41.901Z,79.50
2017-08-31T10:57:12.448Z,78.90
2017-08-31T10:59:43.022Z,78.60
2017-08-31T11:02:13.573Z,77.30
2017-08-31T11:04:44.402Z,78.30
2017-08-31T11:07:15.641Z,78.40
2017-08-31T11:09:46.709Z,76.50
2017-08-31T11:12:17.502Z,75.00
2017-08-31T11:14:48.439Z,74.90
2017-08-31T11:17:20.571Z,75.30
2017-08-31T11:19:51.175Z,75.20
2017-08-31T11:22:21.678Z,75.90
2017-08-31T11:24:52.091Z,76.30
2017-08-31T11:27:22.830Z,75.00
2017-08-31T11:29:53.798Z,76.30
2017-08-31T11:32:24.262Z,75.90
2017-08-31T11:34:54.967Z,74.30
2017-08-31T11:37:25.709Z,74.60
2017-08-31T11:39:56.013Z,74.50
2017-08-31T11:42:26.673Z,74.80
2017-08-31T11:44:57.005Z,74.40
2017-08-31T11:47:27.466Z,75.70
2017-08-31T11:49:58.013Z,75.90
2017-08-31T11:52:28.591Z,75.20
2017-08-31T11:54:59.949Z,72.70
2017-08-31T11:57:31.492Z,74.30
2017-08-31T12:00:01.851Z,73.10
2017-08-31T12:02:32.283Z,73.00
2017-08-31T12:05:02.593Z,72.80
2017-08-31T12:07:34.049Z,72.70
2017-08-31T12:10:06.577Z,76.40
2017-08-31T12:12:38.847Z,78.80
2017-08-31T12:15:12.772Z,81.00
2017-08-31T12:17:43.377Z,80.10
2017-08-31T12:20:15.206Z,79.20
2017-08-31T12:22:45.499Z,79.90
2017-08-31T12:25:16.680Z,80.90
2017-08-31T12:27:47.110Z,80.80
2017-08-31T12:30:17.517Z,79.90
2017-08-31T12:32:47.947Z,79.40
2017-08-31T12:35:18.245Z,79.90
2017-08-31T12:37:48.608Z,80.10
2017-08-31T12:40:19.092Z,77.40
2017-08-31T12:42:49.709Z,77.60
2017-08-31T12:45:20.036Z,77.20
2017-08-31T12:47:50.513Z,77.80
2017-08-31T12:50:20.936Z,77.80
2017-08-31T12:55:19.582Z,76.60
2017-08-31T12:57:50.222Z,77.60
2017-08-31T13:00:23.415Z,77.80
2017-08-31T13:02:53.856Z,78.00
2017-08-31T13:05:24.210Z,77.00
2017-08-31T13:07:55.398Z,77.00
2017-08-31T13:10:25.631Z,77.00
2017-08-31T13:12:55.976Z,76.80
2017-08-31T13:15:26.673Z,77.80
2017-08-31T13:17:57.260Z,76.60
2017-08-31T13:20:27.565Z,74.40
2017-08-31T13:22:58.495Z,74.00
2017-08-31T13:25:30.611Z,75.90
2017-08-31T13:28:01.071Z,75.20
2017-08-31T13:30:31.811Z,73.50
2017-08-31T13:33:02.321Z,72.80
2017-08-31T13:35:33.173Z,72.00
2017-08-31T13:38:03.935Z,72.70
2017-08-31T13:40:34.279Z,72.70
2017-08-31T13:43:04.878Z,73.20
2017-08-31T13:45:35.403Z,71.70
2017-08-31T13:48:06.051Z,71.60
2017-08-31T13:50:36.506Z,71.30
2017-08-31T13:53:10.012Z,72.10
2017-08-31T13:55:40.658Z,72.20
2017-08-31T13:58:11.019Z,72.70
2017-08-31T14:00:41.461Z,72.60
2017-08-31T14:03:12.645Z,72.90
2017-08-31T14:05:43.285Z,72.90
2017-08-31T14:08:13.716Z,72.80
2017-08-31T14:10:44.045Z,73.00
2017-08-31T14:13:14.318Z,72.70
2017-08-31T14:15:44.794Z,72.50
2017-08-31T14:18:15.282Z,73.40
2017-08-31T14:20:45.961Z,73.10
2017-08-31T14:23:16.383Z,72.10
2017-08-31T14:25:47.570Z,71.10
2017-08-31T14:28:17.981Z,71.10
2017-08-31T14:30:48.228Z,70.10
2017-08-31T14:33:18.798Z,69.60
2017-08-31T14:35:49.599Z,69.80
2017-08-31T14:38:19.984Z,69.50
2017-08-31T14:40:50.431Z,69.60
2017-08-31T14:43:20.970Z,68.40
2017-08-31T14:45:51.694Z,67.50
2017-08-31T14:48:22.208Z,66.30
2017-08-31T14:50:53.741Z,66.90
2017-08-31T14:53:24.043Z,66.50
2017-08-31T14:55:54.556Z,66.60
2017-08-31T14:58:24.962Z,66.40
2017-08-31T15:00:55.664Z,66.70
2017-08-31T15:03:25.944Z,65.40
2017-08-31T15:05:56.330Z,65.80
2017-08-31T15:08:26.718Z,64.80
2017-08-31T15:10:57.104Z,66.60
2017-08-31T15:13:27.524Z,65.10
2017-08-31T15:15:58.532Z,63.70
2017-08-31T15:18:28.783Z,63.70
2017-08-31T15:20:59.162Z,62.60
2017-08-31T15:23:32.650Z,63.90
2017-08-31T15:26:03.200Z,63.00
2017-08-31T15:28:34.553Z,62.70
2017-08-31T15:31:05.968Z,63.30
2017-08-31T15:33:36.316Z,63.20
2017-08-31T15:36:06.733Z,63.50
2017-08-31T15:38:37.279Z,63.90
2017-08-31T15:41:07.712Z,62.30
2017-08-31T15:43:38.861Z,63.40
2017-08-31T15:46:10.148Z,64.30
2017-08-31T15:48:40.889Z,64.20
2017-08-31T15:51:11.306Z,64.70
2017-08-31T15:53:41.559Z,65.10
2017-08-31T15:56:12.004Z,64.90
2017-08-31T15:58:42.471Z,65.50
2017-08-31T16:01:12.924Z,65.40
2017-08-31T16:03:46.029Z,66.00
2017-08-31T16:06:16.634Z,66.10
2017-08-31T16:08:47.886Z,66.10
2017-08-31T16:11:18.596Z,66.60
2017-08-31T16:13:49.134Z,65.70
2017-08-31T16:16:19.390Z,66.20
2017-08-31T16:18:50.007Z,65.80
2017-08-31T16:21:20.957Z,65.50
2017-08-31T16:23:51.658Z,65.90
2017-08-31T16:26:22.315Z,66.10
2017-08-31T16:28:53.122Z,65.90
2017-08-31T16:31:24.474Z,66.30
2017-08-31T16:33:55.390Z,65.20
2017-08-31T16:36:26.322Z,65.60
2017-08-31T16:38:57.187Z,65.90
2017-08-31T16:41:27.625Z,66.60
2017-08-31T16:43:58.043Z,66.70
2017-08-31T16:46:29.740Z,67.00
2017-08-31T16:49:00.910Z,66.80
2017-08-31T16:51:31.442Z,66.90
2017-08-31T16:54:02.939Z,67.00
2017-08-31T16:56:34.349Z,67.10
2017-08-31T16:59:05.040Z,67.30
2017-08-31T17:01:36.123Z,66.40
2017-08-31T17:04:08.442Z,66.60
2017-08-31T17:06:40.146Z,66.00
2017-08-31T17:09:11.921Z,66.10
2017-08-31T17:11:42.347Z,67.10
2017-08-31T17:14:12.725Z,66.60
2017-08-31T17:16:43.897Z,66.50
2017-08-31T17:19:14.398Z,66.30
2017-08-31T17:21:45.022Z,65.80
2017-08-31T17:24:16.263Z,66.00
2017-08-31T17:26:46.777Z,65.00
2017-08-31T17:29:19.919Z,64.80
2017-08-31T17:31:50.991Z,64.50
2017-08-31T17:34:22.225Z,64.40
2017-08-31T17:36:52.690Z,65.10
2017-08-31T17:39:23.231Z,64.20
2017-08-31T17:41:54.548Z,64.20
2017-08-31T17:44:25.007Z,64.10
2017-08-31T17:46:55.791Z,64.40
2017-08-31T17:49:26.526Z,65.20
2017-08-31T17:51:57.716Z,65.10
2017-08-31T17:54:28.259Z,65.20
2017-08-31T17:56:58.727Z,65.60
2017-08-31T17:59:29.100Z,65.50
2017-08-31T18:01:59.605Z,65.50
2017-08-31T18:04:30.370Z,65.90
2017-08-31T18:07:01.948Z,65.90
2017-08-31T18:09:32.450Z,65.90
2017-08-31T18:12:02.894Z,65.10
2017-08-31T18:14:33.962Z,65.30
2017-08-31T18:17:04.511Z,65.70
2017-08-31T18:19:35.280Z,65.70
2017-08-31T18:22:05.858Z,65.60
2017-08-31T18:24:37.083Z,65.90
2017-08-31T18:27:08.273Z,65.80
2017-08-31T18:29:39.202Z,65.10
2017-08-31T18:32:09.685Z,65.40
2017-08-31T18:34:40.272Z,65.90
2017-08-31T18:37:11.404Z,66.00
2017-08-31T18:39:41.797Z,66.00
2017-08-31T18:42:12.206Z,66.60
2017-08-31T18:44:42.693Z,66.70
2017-08-31T18:47:13.477Z,67.10
2017-08-31T18:49:44.027Z,67.50
2017-08-31T18:52:15.812Z,68.10
2017-08-31T18:54:46.232Z,68.00
2017-08-31T18:57:16.973Z,68.40
2017-08-31T18:59:48.276Z,68.70
2017-08-31T19:02:19.219Z,69.00
2017-08-31T19:04:49.738Z,69.30
2017-08-31T19:07:20.598Z,69.50
2017-08-31T19:09:52.112Z,70.90
2017-08-31T19:12:22.981Z,70.50
2017-08-31T19:14:54.978Z,70.90
2017-08-31T19:17:25.566Z,70.90
2017-08-31T19:19:56.801Z,71.20
2017-08-31T19:22:27.507Z,71.00
2017-08-31T19:24:58.221Z,71.30
2017-08-31T19:27:29.717Z,71.30
2017-08-31T19:30:00.194Z,71.20
2017-08-31T19:32:30.834Z,71.50
2017-08-31T19:35:01.358Z,71.60
2017-08-31T19:37:32.110Z,71.60
2017-08-31T19:40:02.786Z,71.80
2017-08-31T19:42:33.468Z,71.90
2017-08-31T19:45:04.632Z,71.80
2017-08-31T19:47:35.238Z,71.70
2017-08-31T19:50:06.562Z,71.90
2017-08-31T19:52:36.975Z,71.90
2017-08-31T19:55:07.504Z,72.10
2017-08-31T19:57:38.215Z,72.10
2017-08-31T20:00:09.386Z,72.00
2017-08-31T20:02:39.872Z,71.90
2017-08-31T20:05:12.148Z,72.60
2017-08-31T20:07:42.633Z,72.50
2017-08-31T20:10:13.967Z,72.50
2017-08-31T20:12:44.779Z,72.80
2017-08-31T20:15:15.749Z,72.50
2017-08-31T20:17:46.529Z,72.90
2017-08-31T20:20:17.237Z,74.00
2017-08-31T20:22:48.008Z,73.60
2017-08-31T20:25:18.834Z,74.00
2017-08-31T20:27:49.666Z,73.80
2017-08-31T20:30:20.322Z,73.80
2017-08-31T20:32:50.773Z,73.70
2017-08-31T20:35:21.374Z,73.70
2017-08-31T20:37:52.202Z,73.90
2017-08-31T20:40:23.253Z,74.00
2017-08-31T20:42:53.729Z,74.60
2017-08-31T20:45:24.153Z,74.70
2017-08-31T20:47:54.914Z,75.00
2017-08-31T20:50:25.430Z,74.60
2017-08-31T20:52:56.863Z,74.70
2017-08-31T20:55:27.785Z,75.30
2017-08-31T20:57:58.566Z,75.00
2017-08-31T21:00:29.513Z,75.10
2017-08-31T21:03:01.190Z,74.90
2017-08-31T21:05:31.970Z,74.90
2017-08-31T21:08:02.536Z,75.00
2017-08-31T21:10:33.238Z,75.60
2017-08-31T21:13:04.447Z,74.50
2017-08-31T21:15:35.278Z,74.50
2017-08-31T21:18:06.828Z,74.40
2017-08-31T21:20:37.523Z,74.50
2017-08-31T21:23:09.019Z,74.60
2017-08-31T21:25:39.910Z,74.60
2017-08-31T21:28:10.793Z,74.60
2017-08-31T21:30:41.306Z,74.60
2017-08-31T21:33:11.876Z,74.50
2017-08-31T21:35:42.670Z,74.50
2017-08-31T21:38:13.358Z,74.50
2017-08-31T21:40:44.215Z,74.70
2017-08-31T21:43:15.804Z,74.70
2017-08-31T21:45:46.644Z,74.70
2017-08-31T21:48:17.074Z,75.30
2017-08-31T21:50:47.574Z,75.10
2017-08-31T21:53:18.449Z,75.70
2017-08-31T21:55:49.133Z,75.80
2017-08-31T21:58:20.789Z,76.60
2017-08-31T22:00:51.338Z,76.20
2017-08-31T22:03:23.710Z,76.00
2017-08-31T22:05:56.505Z,75.70
2017-08-31T22:08:26.984Z,75.50
2017-08-31T22:10:57.602Z,75.50
2017-08-31T22:13:28.264Z,75.80
2017-08-31T22:15:59.126Z,75.70
2017-08-31T22:18:29.979Z,75.50
2017-08-31T22:21:01.283Z,75.60
2017-08-31T22:23:31.806Z,76.50
2017-08-31T22:26:04.789Z,76.20
2017-08-31T22:28:35.300Z,76.20
2017-08-31T22:31:06.162Z,76.00
2017-08-31T22:33:36.462Z,76.00
2017-08-31T22:36:08.049Z,76.10
2017-08-31T22:38:38.487Z,76.00
2017-08-31T22:41:09.020Z,76.10
2017-08-31T22:43:39.662Z,76.20
2017-08-31T22:46:11.859Z,76.20
2017-08-31T22:48:42.624Z,76.10
2017-08-31T22:51:13.030Z,76.10
2017-08-31T22:53:43.865Z,76.00
2017-08-31T22:56:14.806Z,76.10
2017-08-31T22:58:45.502Z,76.00
2017-08-31T23:01:16.951Z,75.90
2017-08-31T23:03:47.761Z,76.60
2017-08-31T23:06:18.590Z,75.70
2017-08-31T23:08:49.096Z,75.60
2017-08-31T23:11:19.740Z,75.80
2017-08-31T23:13:50.380Z,75.60
2017-08-31T23:16:21.808Z,75.50
2017-08-31T23:18:52.832Z,76.10
2017-08-31T23:21:23.758Z,75.80
2017-08-31T23:23:54.015Z,75.80
2017-08-31T23:26:25.289Z,75.80
2017-08-31T23:28:56.164Z,75.90
2017-08-31T23:31:26.936Z,76.20
2017-08-31T23:33:57.871Z,76.20
2017-08-31T23:36:28.528Z,76.30
2017-08-31T23:38:58.790Z,76.30
2017-08-31T23:41:30.010Z,76.40
2017-08-31T23:44:00.740Z,76.30
2017-08-31T23:46:32.086Z,76.10
2017-08-31T23:49:03.266Z,76.20
2017-08-31T23:51:34.303Z,76.30
2017-08-31T23:54:05.942Z,77.00
2017-08-31T23:56:36.736Z,76.90
2017-08-31T23:59:07.506Z,76.90
